sensor_id;sensor_type;location;lat;lon;timestamp;pressure;altitude;pressure_sealevel;temperature;humidity
70343;BME280;57767;42.068;24.752;2023-04-01T00:00:13;98069.97;;;11.33;57.47
70343;BME280;57767;42.068;24.752;2023-04-01T00:01:15;98075.47;;;11.32;57.91
70343;BME280;57767;42.068;24.752;2023-04-01T00:02:18;98078.13;;;11.32;57.48
70343;BME280;57767;42.068;24.752;2023-04-01T00:03:20;98059.41;;;11.22;58.03
70343;BME280;57767;42.068;24.752;2023-04-01T00:04:23;98065.03;;;11.25;58.14
70343;BME280;57767;42.068;24.752;2023-04-01T00:05:25;98057.34;;;11.24;57.62
70343;BME280;57767;42.068;24.752;2023-04-01T00:06:27;98058.16;;;11.24;58.21
70343;BME280;57767;42.068;24.752;2023-04-01T00:07:32;98048.94;;;11.15;57.14
70343;BME280;57767;42.068;24.752;2023-04-01T00:08:34;98047.00;;;11.10;57.70
70343;BME280;57767;42.068;24.752;2023-04-01T00:09:36;98064.25;;;11.25;57.04
70343;BME280;57767;42.068;24.752;2023-04-01T00:10:38;98065.03;;;11.25;57.34
70343;BME280;57767;42.068;24.752;2023-04-01T00:11:40;98068.38;;;11.21;57.56
70343;BME280;57767;42.068;24.752;2023-04-01T00:12:42;98069.63;;;11.18;58.41
70343;BME280;57767;42.068;24.752;2023-04-01T00:13:44;98064.56;;;11.17;57.91
70343;BME280;57767;42.068;24.752;2023-04-01T00:14:46;98072.84;;;11.20;57.80
70343;BME280;57767;42.068;24.752;2023-04-01T00:15:48;98069.97;;;11.22;58.40
70343;BME280;57767;42.068;24.752;2023-04-01T00:16:50;98071.13;;;11.26;58.07
70343;BME280;57767;42.068;24.752;2023-04-01T00:17:52;98063.44;;;11.24;57.98
70343;BME280;57767;42.068;24.752;2023-04-01T00:18:54;98070.31;;;11.25;58.78
70343;BME280;57767;42.068;24.752;2023-04-01T00:19:56;98078.03;;;11.27;57.97
70343;BME280;57767;42.068;24.752;2023-04-01T00:20:58;98072.75;;;11.27;57.59
70343;BME280;57767;42.068;24.752;2023-04-01T00:22:00;98075.63;;;11.25;57.79
70343;BME280;57767;42.068;24.752;2023-04-01T00:23:02;98077.69;;;11.23;57.37
70343;BME280;57767;42.068;24.752;2023-04-01T00:24:04;98071.22;;;11.19;57.01
70343;BME280;57767;42.068;24.752;2023-04-01T00:25:07;98068.38;;;11.21;56.59
70343;BME280;57767;42.068;24.752;2023-04-01T00:26:09;98068.59;;;11.19;55.95
70343;BME280;57767;42.068;24.752;2023-04-01T00:27:11;98067.22;;;11.17;56.11
70343;BME280;57767;42.068;24.752;2023-04-01T00:28:13;98069.03;;;11.16;56.50
70343;BME280;57767;42.068;24.752;2023-04-01T00:29:15;98067.69;;;11.13;56.53
70343;BME280;57767;42.068;24.752;2023-04-01T00:30:17;98071.69;;;11.16;56.49
70343;BME280;57767;42.068;24.752;2023-04-01T00:31:19;98070.34;;;11.13;57.15
70343;BME280;57767;42.068;24.752;2023-04-01T00:32:21;98071.91;;;11.14;56.85
70343;BME280;57767;42.068;24.752;2023-04-01T00:33:23;98064.69;;;11.10;56.46
70343;BME280;57767;42.068;24.752;2023-04-01T00:34:25;98061.25;;;11.09;56.34
70343;BME280;57767;42.068;24.752;2023-04-01T00:35:27;98069.75;;;11.11;56.36
70343;BME280;57767;42.068;24.752;2023-04-01T00:36:28;98067.13;;;11.11;55.88
70343;BME280;57767;42.068;24.752;2023-04-01T00:37:30;98060.44;;;11.09;56.13
70343;BME280;57767;42.068;24.752;2023-04-01T00:38:32;98066.88;;;11.13;56.17
70343;BME280;57767;42.068;24.752;2023-04-01T00:39:34;98066.53;;;11.09;56.20
70343;BME280;57767;42.068;24.752;2023-04-01T00:40:43;98068.72;;;11.12;56.17
70343;BME280;57767;42.068;24.752;2023-04-01T00:41:45;98075.03;;;11.11;55.73
70343;BME280;57767;42.068;24.752;2023-04-01T00:42:46;98069.75;;;11.11;56.73
70343;BME280;57767;42.068;24.752;2023-04-01T00:43:50;98071.25;;;11.07;56.55
70343;BME280;57767;42.068;24.752;2023-04-01T00:44:54;98073.66;;;11.09;55.85
70343;BME280;57767;42.068;24.752;2023-04-01T00:45:56;98079.16;;;11.07;57.16
70343;BME280;57767;42.068;24.752;2023-04-01T00:46:59;98084.69;;;11.06;56.82
70343;BME280;57767;42.068;24.752;2023-04-01T00:49:18;98069.06;;;11.04;56.29
70343;BME280;57767;42.068;24.752;2023-04-01T00:50:22;98069.53;;;11.01;56.98
70343;BME280;57767;42.068;24.752;2023-04-01T00:51:28;98065.72;;;10.97;56.51
70343;BME280;57767;42.068;24.752;2023-04-01T00:52:30;98066.19;;;10.94;56.53
70343;BME280;57767;42.068;24.752;2023-04-01T00:53:34;98060.44;;;10.97;57.19
70343;BME280;57767;42.068;24.752;2023-04-01T00:54:38;98069.75;;;11.00;56.40
70343;BME280;57767;42.068;24.752;2023-04-01T00:55:50;98070.78;;;10.99;56.82
70343;BME280;57767;42.068;24.752;2023-04-01T00:56:59;98068.16;;;10.99;57.12
70343;BME280;57767;42.068;24.752;2023-04-01T00:58:05;98066.53;;;10.98;56.31
70343;BME280;57767;42.068;24.752;2023-04-01T00:59:14;98067.00;;;10.95;56.90
70343;BME280;57767;42.068;24.752;2023-04-01T01:00:17;98061.94;;;10.93;56.79
70343;BME280;57767;42.068;24.752;2023-04-01T01:01:22;98059.50;;;10.92;56.98
70343;BME280;57767;42.068;24.752;2023-04-01T01:02:25;98051.72;;;10.85;56.48
70343;BME280;57767;42.068;24.752;2023-04-01T01:03:27;98044.69;;;10.79;57.00
70343;BME280;57767;42.068;24.752;2023-04-01T01:04:32;98062.88;;;10.87;56.86
70343;BME280;57767;42.068;24.752;2023-04-01T01:10:55;98048.13;;;10.68;59.53
70343;BME280;57767;42.068;24.752;2023-04-01T01:13:25;98062.72;;;10.70;58.68
70343;BME280;57767;42.068;24.752;2023-04-01T01:17:02;98052.25;;;10.64;58.87
70343;BME280;57767;42.068;24.752;2023-04-01T01:27:23;98052.25;;;10.64;59.44
70343;BME280;57767;42.068;24.752;2023-04-01T01:28:59;98055.47;;;10.66;59.81
70343;BME280;57767;42.068;24.752;2023-04-01T01:33:51;98066.84;;;10.66;60.11
70343;BME280;57767;42.068;24.752;2023-04-01T01:35:19;98059.72;;;10.67;59.91
70343;BME280;57767;42.068;24.752;2023-04-01T01:36:22;98058.34;;;10.64;60.35
70343;BME280;57767;42.068;24.752;2023-04-01T01:37:29;98059.94;;;10.65;60.08
70343;BME280;57767;42.068;24.752;2023-04-01T01:38:34;98058.00;;;10.61;60.49
70343;BME280;57767;42.068;24.752;2023-04-01T01:39:37;98061.78;;;10.65;59.78
70343;BME280;57767;42.068;24.752;2023-04-01T01:40:41;98058.69;;;10.68;60.08
70343;BME280;57767;42.068;24.752;2023-04-01T01:41:44;98062.38;;;10.67;60.21
70343;BME280;57767;42.068;24.752;2023-04-01T01:42:54;98060.75;;;10.66;60.01
70343;BME280;57767;42.068;24.752;2023-04-01T01:43:59;98056.28;;;10.66;59.95
70343;BME280;57767;42.068;24.752;2023-04-01T01:45:04;98053.63;;;10.66;60.73
70343;BME280;57767;42.068;24.752;2023-04-01T01:46:11;98056.06;;;10.68;60.72
70343;BME280;57767;42.068;24.752;2023-04-01T01:47:15;98036.09;;;10.60;61.11
70343;BME280;57767;42.068;24.752;2023-04-01T01:48:19;98053.78;;;10.71;60.44
70343;BME280;57767;42.068;24.752;2023-04-01T01:49:21;98048.84;;;10.75;61.61
70343;BME280;57767;42.068;24.752;2023-04-01T01:50:25;98049.28;;;10.72;61.02
70343;BME280;57767;42.068;24.752;2023-04-01T01:51:28;98054.13;;;10.75;61.34
70343;BME280;57767;42.068;24.752;2023-04-01T01:52:30;98035.50;;;10.70;61.71
70343;BME280;57767;42.068;24.752;2023-04-01T01:53:31;98051.72;;;10.73;61.82
70343;BME280;57767;42.068;24.752;2023-04-01T01:54:33;98048.84;;;10.75;61.59
70343;BME280;57767;42.068;24.752;2023-04-01T01:55:41;98043.09;;;10.78;60.82
70343;BME280;57767;42.068;24.752;2023-04-01T01:56:46;98049.16;;;10.78;61.23
70343;BME280;57767;42.068;24.752;2023-04-01T01:57:49;98047.22;;;10.74;62.00
70343;BME280;57767;42.068;24.752;2023-04-01T01:58:55;98036.41;;;10.64;62.07
70343;BME280;57767;42.068;24.752;2023-04-01T02:00:06;98038.50;;;10.73;62.17
70343;BME280;57767;42.068;24.752;2023-04-01T02:01:27;98035.75;;;10.68;62.11
70343;BME280;57767;42.068;24.752;2023-04-01T02:02:31;98027.00;;;10.68;61.91
70343;BME280;57767;42.068;24.752;2023-04-01T02:03:35;98035.88;;;10.73;61.25
70343;BME280;57767;42.068;24.752;2023-04-01T02:04:40;98026.13;;;10.74;61.75
70343;BME280;57767;42.068;24.752;2023-04-01T02:05:44;98024.06;;;10.76;61.70
70343;BME280;57767;42.068;24.752;2023-04-01T02:06:52;98018.78;;;10.76;61.53
70343;BME280;57767;42.068;24.752;2023-04-01T02:08:00;98011.97;;;10.80;61.60
70343;BME280;57767;42.068;24.752;2023-04-01T02:09:05;98007.16;;;10.77;61.25
70343;BME280;57767;42.068;24.752;2023-04-01T02:10:08;98005.66;;;10.81;60.80
70343;BME280;57767;42.068;24.752;2023-04-01T02:11:13;98004.63;;;10.82;61.47
70343;BME280;57767;42.068;24.752;2023-04-01T02:12:18;97998.78;;;10.80;61.68
70343;BME280;57767;42.068;24.752;2023-04-01T02:13:43;97989.72;;;10.76;61.48
70343;BME280;57767;42.068;24.752;2023-04-01T02:14:56;97993.50;;;10.80;61.69
70343;BME280;57767;42.068;24.752;2023-04-01T02:16:02;97999.56;;;10.81;60.71
70343;BME280;57767;42.068;24.752;2023-04-01T02:17:09;98000.97;;;10.83;59.79
70343;BME280;57767;42.068;24.752;2023-04-01T02:18:13;97998.31;;;10.83;61.00
70343;BME280;57767;42.068;24.752;2023-04-01T02:19:16;97997.75;;;10.81;59.62
70343;BME280;57767;42.068;24.752;2023-04-01T02:20:24;98008.44;;;10.86;59.18
70343;BME280;57767;42.068;24.752;2023-04-01T02:21:29;98011.06;;;10.86;59.99
70343;BME280;57767;42.068;24.752;2023-04-01T02:22:39;98013.72;;;10.86;60.51
70343;BME280;57767;42.068;24.752;2023-04-01T02:23:44;98021.41;;;10.88;60.96
70343;BME280;57767;42.068;24.752;2023-04-01T02:24:49;98020.38;;;10.89;60.99
70343;BME280;57767;42.068;24.752;2023-04-01T02:25:51;98019.81;;;10.87;60.72
70343;BME280;57767;42.068;24.752;2023-04-01T02:26:54;98016.94;;;10.88;60.00
70343;BME280;57767;42.068;24.752;2023-04-01T02:27:57;98010.94;;;10.81;60.32
70343;BME280;57767;42.068;24.752;2023-04-01T02:29:01;98011.97;;;10.80;60.61
70343;BME280;57767;42.068;24.752;2023-04-01T02:30:06;98018.66;;;10.83;60.79
70343;BME280;57767;42.068;24.752;2023-04-01T02:31:10;98012.09;;;10.85;60.16
70343;BME280;57767;42.068;24.752;2023-04-01T02:32:13;97998.19;;;10.78;60.78
70343;BME280;57767;42.068;24.752;2023-04-01T02:33:16;98013.72;;;10.86;60.60
70343;BME280;57767;42.068;24.752;2023-04-01T02:34:19;98000.75;;;10.85;60.79
70343;BME280;57767;42.068;24.752;2023-04-01T02:35:23;97999.94;;;10.84;61.15
70343;BME280;57767;42.068;24.752;2023-04-01T02:36:25;98003.47;;;10.90;60.62
70343;BME280;57767;42.068;24.752;2023-04-01T02:37:26;97994.53;;;10.91;60.68
70343;BME280;57767;42.068;24.752;2023-04-01T02:38:28;97991.78;;;10.86;60.47
70343;BME280;57767;42.068;24.752;2023-04-01T02:39:30;97997.38;;;10.89;61.17
70343;BME280;57767;42.068;24.752;2023-04-01T02:40:43;97999.81;;;10.91;61.55
70343;BME280;57767;42.068;24.752;2023-04-01T02:41:45;97997.53;;;10.83;60.93
70343;BME280;57767;42.068;24.752;2023-04-01T02:42:47;98001.63;;;10.78;62.05
70343;BME280;57767;42.068;24.752;2023-04-01T02:43:49;98000.75;;;10.73;61.27
70343;BME280;57767;42.068;24.752;2023-04-01T02:44:51;98006.59;;;10.75;61.71
70343;BME280;57767;42.068;24.752;2023-04-01T02:45:53;97998.09;;;10.73;61.34
70343;BME280;57767;42.068;24.752;2023-04-01T02:46:55;97993.13;;;10.65;62.12
70343;BME280;57767;42.068;24.752;2023-04-01T02:47:56;98012.91;;;10.62;61.61
70343;BME280;57767;42.068;24.752;2023-04-01T02:48:58;98019.53;;;10.65;61.36
70343;BME280;57767;42.068;24.752;2023-04-01T02:50:00;98018.50;;;10.66;60.86
70343;BME280;57767;42.068;24.752;2023-04-01T02:51:02;98021.72;;;10.68;60.38
70343;BME280;57767;42.068;24.752;2023-04-01T02:52:04;98019.09;;;10.68;61.17
70343;BME280;57767;42.068;24.752;2023-04-01T02:53:06;98013.81;;;10.68;61.16
70343;BME280;57767;42.068;24.752;2023-04-01T02:54:08;98012.09;;;10.73;60.74
70343;BME280;57767;42.068;24.752;2023-04-01T02:55:09;98020.25;;;10.72;60.60
70343;BME280;57767;42.068;24.752;2023-04-01T02:56:12;98016.59;;;10.73;60.58
70343;BME280;57767;42.068;24.752;2023-04-01T02:57:13;98017.38;;;10.73;60.83
70343;BME280;57767;42.068;24.752;2023-04-01T02:58:16;98018.63;;;10.71;61.67
70343;BME280;57767;42.068;24.752;2023-04-01T02:59:17;98019.91;;;10.68;61.54
70343;BME280;57767;42.068;24.752;2023-04-01T03:00:19;98016.91;;;10.65;62.09
70343;BME280;57767;42.068;24.752;2023-04-01T03:01:22;98020.03;;;10.62;62.28
70343;BME280;57767;42.068;24.752;2023-04-01T03:02:24;98015.78;;;10.61;61.15
70343;BME280;57767;42.068;24.752;2023-04-01T03:03:26;98006.09;;;10.55;60.36
70343;BME280;57767;42.068;24.752;2023-04-01T03:04:28;97989.59;;;10.48;60.68
70343;BME280;57767;42.068;24.752;2023-04-01T03:05:29;98007.72;;;10.56;62.23
70343;BME280;57767;42.068;24.752;2023-04-01T03:06:32;98010.25;;;10.51;61.84
70343;BME280;57767;42.068;24.752;2023-04-01T03:07:34;97996.72;;;10.17;63.28
70343;BME280;57767;42.068;24.752;2023-04-01T03:08:36;98004.38;;;10.07;62.83
70343;BME280;57767;42.068;24.752;2023-04-01T03:09:38;97997.56;;;9.88;63.40
70343;BME280;57767;42.068;24.752;2023-04-01T03:10:40;97993.63;;;9.79;64.14
70343;BME280;57767;42.068;24.752;2023-04-01T03:11:42;97992.47;;;9.75;64.39
70343;BME280;57767;42.068;24.752;2023-04-01T03:12:43;97983.72;;;9.62;64.43
70343;BME280;57767;42.068;24.752;2023-04-01T03:13:45;97988.66;;;9.70;64.95
70343;BME280;57767;42.068;24.752;2023-04-01T03:14:47;98001.69;;;9.65;64.25
70343;BME280;57767;42.068;24.752;2023-04-01T03:15:49;97996.44;;;9.65;64.60
70343;BME280;57767;42.068;24.752;2023-04-01T03:16:51;98009.81;;;9.64;65.42
70343;BME280;57767;42.068;24.752;2023-04-01T03:17:52;98003.03;;;9.56;65.10
70343;BME280;57767;42.068;24.752;2023-04-01T03:18:54;98007.19;;;9.64;64.34
70343;BME280;57767;42.068;24.752;2023-04-01T03:19:58;98001.78;;;9.59;63.51
70343;BME280;57767;42.068;24.752;2023-04-01T03:21:20;98010.56;;;9.71;63.02
70343;BME280;57767;42.068;24.752;2023-04-01T03:22:22;98009.31;;;9.74;63.02
70343;BME280;57767;42.068;24.752;2023-04-01T03:23:24;98010.78;;;9.69;63.92
70343;BME280;57767;42.068;24.752;2023-04-01T03:24:26;98009.59;;;9.65;64.33
70343;BME280;57767;42.068;24.752;2023-04-01T03:25:27;98001.69;;;9.65;64.38
70343;BME280;57767;42.068;24.752;2023-04-01T03:26:32;98001.56;;;9.60;64.29
70343;BME280;57767;42.068;24.752;2023-04-01T03:27:34;97999.38;;;9.57;63.63
70343;BME280;57767;42.068;24.752;2023-04-01T03:28:39;98001.00;;;9.58;63.61
70343;BME280;57767;42.068;24.752;2023-04-01T03:29:40;97989.66;;;9.58;63.73
70343;BME280;57767;42.068;24.752;2023-04-01T03:30:42;97995.28;;;9.61;63.98
70343;BME280;57767;42.068;24.752;2023-04-01T03:31:44;97988.41;;;9.60;63.72
70343;BME280;57767;42.068;24.752;2023-04-01T03:32:46;97986.34;;;9.62;64.04
70343;BME280;57767;42.068;24.752;2023-04-01T03:33:48;97986.91;;;9.64;64.60
70343;BME280;57767;42.068;24.752;2023-04-01T03:34:49;97985.63;;;9.55;64.22
70343;BME280;57767;42.068;24.752;2023-04-01T03:35:51;97973.63;;;9.41;64.92
70343;BME280;57767;42.068;24.752;2023-04-01T03:36:53;97980.94;;;9.39;65.10
70343;BME280;57767;42.068;24.752;2023-04-01T03:37:56;97972.47;;;9.37;65.12
70343;BME280;57767;42.068;24.752;2023-04-01T03:38:57;97964.44;;;9.32;65.39
70343;BME280;57767;42.068;24.752;2023-04-01T03:39:59;97965.28;;;9.26;65.70
70343;BME280;57767;42.068;24.752;2023-04-01T03:41:01;97976.34;;;9.34;65.20
70343;BME280;57767;42.068;24.752;2023-04-01T03:42:03;97973.19;;;9.26;65.45
70343;BME280;57767;42.068;24.752;2023-04-01T03:43:05;97975.72;;;9.21;65.91
70343;BME280;57767;42.068;24.752;2023-04-01T03:44:09;97970.38;;;9.09;66.26
70343;BME280;57767;42.068;24.752;2023-04-01T03:45:11;97969.28;;;8.98;66.62
70343;BME280;57767;42.068;24.752;2023-04-01T03:46:20;97976.84;;;8.88;66.14
70343;BME280;57767;42.068;24.752;2023-04-01T03:47:22;97979.66;;;8.93;66.59
70343;BME280;57767;42.068;24.752;2023-04-01T03:48:24;97979.56;;;9.00;65.70
70343;BME280;57767;42.068;24.752;2023-04-01T03:49:26;97972.94;;;8.97;66.11
70343;BME280;57767;42.068;24.752;2023-04-01T03:50:28;97978.41;;;8.96;65.93
70343;BME280;57767;42.068;24.752;2023-04-01T03:51:32;97974.69;;;8.85;66.02
70343;BME280;57767;42.068;24.752;2023-04-01T03:52:34;97974.13;;;8.77;66.53
70343;BME280;57767;42.068;24.752;2023-04-01T03:53:36;97978.34;;;8.84;66.32
70343;BME280;57767;42.068;24.752;2023-04-01T03:54:38;97970.66;;;8.83;66.35
70343;BME280;57767;42.068;24.752;2023-04-01T03:55:40;97982.34;;;8.87;66.28
70343;BME280;57767;42.068;24.752;2023-04-01T03:56:41;97970.22;;;8.86;65.92
70343;BME280;57767;42.068;24.752;2023-04-01T03:57:43;97973.88;;;8.85;65.99
70343;BME280;57767;42.068;24.752;2023-04-01T03:58:45;97973.19;;;8.89;66.25
70343;BME280;57767;42.068;24.752;2023-04-01T03:59:47;97967.50;;;8.92;66.24
70343;BME280;57767;42.068;24.752;2023-04-01T04:00:49;97962.53;;;8.84;67.33
70343;BME280;57767;42.068;24.752;2023-04-01T04:01:50;97967.13;;;8.89;66.55
70343;BME280;57767;42.068;24.752;2023-04-01T04:02:52;97958.13;;;8.78;67.26
70343;BME280;57767;42.068;24.752;2023-04-01T04:03:55;97959.44;;;8.69;68.28
70343;BME280;57767;42.068;24.752;2023-04-01T04:04:57;97970.28;;;8.79;67.74
70343;BME280;57767;42.068;24.752;2023-04-01T04:05:59;97955.94;;;8.75;68.07
70343;BME280;57767;42.068;24.752;2023-04-01T04:07:01;97952.06;;;8.78;68.29
70343;BME280;57767;42.068;24.752;2023-04-01T04:08:03;97953.63;;;8.85;68.14
70343;BME280;57767;42.068;24.752;2023-04-01T04:09:05;97960.84;;;8.90;67.96
70343;BME280;57767;42.068;24.752;2023-04-01T04:10:07;97945.84;;;8.90;67.29
70343;BME280;57767;42.068;24.752;2023-04-01T04:11:08;97951.72;;;8.92;67.19
70343;BME280;57767;42.068;24.752;2023-04-01T04:12:10;97954.34;;;8.92;67.86
70343;BME280;57767;42.068;24.752;2023-04-01T04:13:12;97946.66;;;8.91;68.51
70343;BME280;57767;42.068;24.752;2023-04-01T04:14:14;97951.72;;;8.92;68.64
70343;BME280;57767;42.068;24.752;2023-04-01T04:15:16;97959.19;;;8.95;68.36
70343;BME280;57767;42.068;24.752;2023-04-01T04:16:18;97961.13;;;9.00;67.53
70343;BME280;57767;42.068;24.752;2023-04-01T04:17:20;97957.03;;;9.04;67.37
70343;BME280;57767;42.068;24.752;2023-04-01T04:18:22;97955.22;;;9.05;66.87
70343;BME280;57767;42.068;24.752;2023-04-01T04:19:24;97962.25;;;9.11;67.06
70343;BME280;57767;42.068;24.752;2023-04-01T04:20:26;97961.50;;;9.04;67.55
70343;BME280;57767;42.068;24.752;2023-04-01T04:21:27;97952.94;;;8.90;68.64
70343;BME280;57767;42.068;24.752;2023-04-01T04:22:29;97970.50;;;8.96;68.69
70343;BME280;57767;42.068;24.752;2023-04-01T04:23:31;97956.53;;;8.95;68.82
70343;BME280;57767;42.068;24.752;2023-04-01T04:24:35;97961.66;;;9.09;68.78
70343;BME280;57767;42.068;24.752;2023-04-01T04:25:37;97967.66;;;9.16;68.88
70343;BME280;57767;42.068;24.752;2023-04-01T04:26:39;97956.91;;;9.17;68.88
70343;BME280;57767;42.068;24.752;2023-04-01T04:27:40;97958.13;;;9.15;68.56
70343;BME280;57767;42.068;24.752;2023-04-01T04:28:42;97957.69;;;9.18;68.39
70343;BME280;57767;42.068;24.752;2023-04-01T04:29:44;97957.53;;;9.13;68.27
70343;BME280;57767;42.068;24.752;2023-04-01T04:30:46;97968.94;;;9.25;67.81
70343;BME280;57767;42.068;24.752;2023-04-01T04:31:48;97957.75;;;9.29;68.50
70343;BME280;57767;42.068;24.752;2023-04-01T04:32:49;97966.63;;;9.35;68.25
70343;BME280;57767;42.068;24.752;2023-04-01T04:33:52;97978.47;;;9.44;68.39
70343;BME280;57767;42.068;24.752;2023-04-01T04:34:54;97971.56;;;9.43;68.20
70343;BME280;57767;42.068;24.752;2023-04-01T04:35:57;97962.44;;;9.46;68.35
70343;BME280;57767;42.068;24.752;2023-04-01T04:36:59;97969.75;;;9.44;67.74
70343;BME280;57767;42.068;24.752;2023-04-01T04:38:01;97959.22;;;9.44;67.75
70343;BME280;57767;42.068;24.752;2023-04-01T04:39:03;97956.44;;;9.39;68.22
70343;BME280;57767;42.068;24.752;2023-04-01T04:40:05;97956.31;;;9.33;68.77
70343;BME280;57767;42.068;24.752;2023-04-01T04:41:11;97961.47;;;9.40;68.44
70343;BME280;57767;42.068;24.752;2023-04-01T04:42:14;97964.78;;;9.36;68.34
70343;BME280;57767;42.068;24.752;2023-04-01T04:43:17;97962.97;;;9.36;69.21
70343;BME280;57767;42.068;24.752;2023-04-01T04:44:19;97954.69;;;9.32;69.36
70343;BME280;57767;42.068;24.752;2023-04-01T04:45:21;97964.00;;;9.35;69.26
70343;BME280;57767;42.068;24.752;2023-04-01T04:46:23;97956.78;;;9.42;69.37
70343;BME280;57767;42.068;24.752;2023-04-01T04:47:25;97965.88;;;9.46;69.48
70343;BME280;57767;42.068;24.752;2023-04-01T04:48:26;97966.25;;;9.50;68.71
70343;BME280;57767;42.068;24.752;2023-04-01T04:49:28;97968.78;;;9.56;68.55
70343;BME280;57767;42.068;24.752;2023-04-01T04:50:30;97963.66;;;9.61;68.46
70343;BME280;57767;42.068;24.752;2023-04-01T04:51:32;97951.94;;;9.57;67.97
70343;BME280;57767;42.068;24.752;2023-04-01T04:52:37;97969.19;;;9.72;68.11
70343;BME280;57767;42.068;24.752;2023-04-01T04:53:39;97967.69;;;9.76;67.54
70343;BME280;57767;42.068;24.752;2023-04-01T04:54:40;97968.75;;;9.75;68.47
70343;BME280;57767;42.068;24.752;2023-04-01T04:55:46;97966.91;;;9.75;68.07
70343;BME280;57767;42.068;24.752;2023-04-01T04:56:51;97969.59;;;9.87;66.90
70343;BME280;57767;42.068;24.752;2023-04-01T04:57:53;97969.25;;;9.95;66.60
70343;BME280;57767;42.068;24.752;2023-04-01T04:58:54;97972.59;;;10.02;67.43
70343;BME280;57767;42.068;24.752;2023-04-01T04:59:56;97981.00;;;10.11;67.77
70343;BME280;57767;42.068;24.752;2023-04-01T05:00:58;97965.50;;;10.14;67.32
70343;BME280;57767;42.068;24.752;2023-04-01T05:02:00;97964.44;;;10.22;66.88
70343;BME280;57767;42.068;24.752;2023-04-01T05:03:02;97972.59;;;10.32;66.69
70343;BME280;57767;42.068;24.752;2023-04-01T05:04:04;97963.50;;;10.39;66.61
70343;BME280;57767;42.068;24.752;2023-04-01T05:05:07;97966.88;;;10.47;67.29
70343;BME280;57767;42.068;24.752;2023-04-01T05:06:12;97959.84;;;10.52;67.29
70343;BME280;57767;42.068;24.752;2023-04-01T05:07:14;97962.63;;;10.57;66.93
70343;BME280;57767;42.068;24.752;2023-04-01T05:08:16;97951.25;;;10.57;66.48
70343;BME280;57767;42.068;24.752;2023-04-01T05:09:17;97947.13;;;10.61;66.14
70343;BME280;57767;42.068;24.752;2023-04-01T05:10:19;97956.88;;;10.60;65.97
70343;BME280;57767;42.068;24.752;2023-04-01T05:11:22;97967.91;;;10.69;66.43
70343;BME280;57767;42.068;24.752;2023-04-01T05:12:23;97967.09;;;10.80;66.56
70343;BME280;57767;42.068;24.752;2023-04-01T05:13:25;97964.66;;;10.90;67.41
70343;BME280;57767;42.068;24.752;2023-04-01T05:14:27;97965.94;;;10.99;66.89
70343;BME280;57767;42.068;24.752;2023-04-01T05:15:29;97977.38;;;11.17;67.75
70343;BME280;57767;42.068;24.752;2023-04-01T05:16:31;97965.88;;;11.23;67.56
70343;BME280;57767;42.068;24.752;2023-04-01T05:17:33;97967.25;;;11.37;67.40
70343;BME280;57767;42.068;24.752;2023-04-01T05:18:35;97954.25;;;11.35;67.46
70343;BME280;57767;42.068;24.752;2023-04-01T05:19:37;97970.66;;;11.49;67.24
70343;BME280;57767;42.068;24.752;2023-04-01T05:20:39;97963.00;;;11.64;66.54
70343;BME280;57767;42.068;24.752;2023-04-01T05:21:40;97954.44;;;11.74;67.13
70343;BME280;57767;42.068;24.752;2023-04-01T05:22:42;97961.31;;;11.87;66.36
70343;BME280;57767;42.068;24.752;2023-04-01T05:23:44;97954.38;;;11.97;65.85
70343;BME280;57767;42.068;24.752;2023-04-01T05:24:46;97955.91;;;12.10;64.24
70343;BME280;57767;42.068;24.752;2023-04-01T05:25:48;97952.94;;;12.23;64.77
70343;BME280;57767;42.068;24.752;2023-04-01T05:26:51;97956.47;;;12.29;63.37
70343;BME280;57767;42.068;24.752;2023-04-01T05:27:54;97937.06;;;12.23;61.72
70343;BME280;57767;42.068;24.752;2023-04-01T05:28:56;97955.03;;;12.38;62.48
70343;BME280;57767;42.068;24.752;2023-04-01T05:29:58;97957.50;;;12.44;61.92
70343;BME280;57767;42.068;24.752;2023-04-01T05:31:01;97958.97;;;12.52;62.36
70343;BME280;57767;42.068;24.752;2023-04-01T05:32:04;97954.84;;;12.61;62.61
70343;BME280;57767;42.068;24.752;2023-04-01T05:33:06;97956.28;;;12.69;62.00
70343;BME280;57767;42.068;24.752;2023-04-01T05:34:08;97942.00;;;12.70;61.77
70343;BME280;57767;42.068;24.752;2023-04-01T05:35:10;97946.09;;;12.77;59.72
70343;BME280;57767;42.068;24.752;2023-04-01T05:36:13;97945.34;;;12.82;60.10
70343;BME280;57767;42.068;24.752;2023-04-01T05:37:16;97939.25;;;12.81;60.73
70343;BME280;57767;42.068;24.752;2023-04-01T05:38:18;97947.28;;;12.86;61.09
70343;BME280;57767;42.068;24.752;2023-04-01T05:39:19;97946.56;;;12.91;60.98
70343;BME280;57767;42.068;24.752;2023-04-01T05:40:21;97947.09;;;12.93;61.60
70343;BME280;57767;42.068;24.752;2023-04-01T05:41:23;97937.00;;;12.90;60.62
70343;BME280;57767;42.068;24.752;2023-04-01T05:42:25;97932.22;;;12.92;61.29
70343;BME280;57767;42.068;24.752;2023-04-01T05:43:27;97925.66;;;12.95;61.18
70343;BME280;57767;42.068;24.752;2023-04-01T05:44:29;97923.25;;;12.93;61.26
70343;BME280;57767;42.068;24.752;2023-04-01T05:45:31;97922.75;;;12.96;61.57
70343;BME280;57767;42.068;24.752;2023-04-01T05:46:33;97883.16;;;12.68;61.71
70343;BME280;57767;42.068;24.752;2023-04-01T05:47:35;97907.34;;;12.93;61.46
70343;BME280;57767;42.068;24.752;2023-04-01T05:48:37;97903.53;;;12.84;61.71
70343;BME280;57767;42.068;24.752;2023-04-01T05:49:38;97913.31;;;12.83;61.97
70343;BME280;57767;42.068;24.752;2023-04-01T05:50:41;97913.25;;;12.78;61.80
70343;BME280;57767;42.068;24.752;2023-04-01T05:51:43;97908.50;;;12.80;61.70
70343;BME280;57767;42.068;24.752;2023-04-01T05:52:45;97910.63;;;12.78;62.08
70343;BME280;57767;42.068;24.752;2023-04-01T05:53:47;97910.28;;;12.75;61.39
70343;BME280;57767;42.068;24.752;2023-04-01T05:54:49;97903.41;;;12.74;61.59